This is the latest recevied weather packets stored in our database for station/object KA6UPU-1. If no packets are shown the sender has not sent any weather packets the latest 1 day(s).
| Time | Temp. | Humidity | Pressure | Rain* | Wind** | Luminosity | Snow |
|---|---|---|---|---|---|---|---|
| 1778094138 | 22.78° C | 57% | 1019.6 hPa | 0 mm | - | - | - |
| 1778091267 | 21.11° C | 62% | 1019.9 hPa | 0 mm | - | - | - |
| 1778090967 | 21.11° C | 63% | 1019.9 hPa | 0 mm | - | - | - |
| 1778090667 | 20.56° C | 64% | 1019.9 hPa | 0 mm | - | - | - |
| 1778090367 | 20.56° C | 63% | 1019.9 hPa | 0 mm | - | - | - |
| 1778090067 | 20.56° C | 65% | 1019.9 hPa | 0 mm | - | - | - |
| 1778089467 | 20° C | 66% | 1019.9 hPa | 0 mm | - | - | - |
| 1778088867 | 20° C | 67% | 1020 hPa | 0 mm | - | - | - |
| 1778088267 | 19.44° C | 66% | 1020 hPa | 0 mm | - | - | - |
| 1778087967 | 19.44° C | 67% | 1020.1 hPa | 0 mm | - | - | - |
| 1778086467 | 18.89° C | 69% | 1020.1 hPa | 0 mm | - | - | - |
| 1778084667 | 18.33° C | 71% | 1020.2 hPa | 0 mm | - | - | - |
| 1778084114 | 17.78° C | 71% | 1020.2 hPa | 0 mm | - | - | - |
| 1778083814 | 17.22° C | 72% | 1020.2 hPa | 0 mm | - | - | - |
| 1778083514 | 17.22° C | 73% | 1020.2 hPa | 0 mm | - | - | - |
| 1778083214 | 17.22° C | 74% | 1020.3 hPa | 0 mm | - | - | - |
| 1778082914 | 17.22° C | 73% | 1020.3 hPa | 0 mm | - | - | - |
| 1778082293 | 16.67° C | 76% | 1020.3 hPa | 0 mm | - | - | - |
| 1778081993 | 16.67° C | 76% | 1020.3 hPa | 0 mm | - | - | - |
| 1778081693 | 16.11° C | 76% | 1020.4 hPa | 0 mm | - | - | - |
| 1778081093 | 16.11° C | 78% | 1020.4 hPa | 0 mm | - | - | - |
| 1778080493 | 15.56° C | 82% | 1020.3 hPa | 0 mm | - | - | - |
| 1778080193 | 15° C | 82% | 1020.3 hPa | 0 mm | - | - | - |
| 1778079893 | 15° C | 83% | 1020.4 hPa | 0 mm | - | - | - |
| 1778079293 | 13.89° C | 86% | 1020.3 hPa | 0 mm | - | - | - |
* Rain latest hour (hover to see other rain measurements)
** Current wind speed in m/s (hover to see current wind gust speed)